Mula, Spain
Current Conditions -  °F | °C
As of 10:00 PM on Wednesday 26 Nov 2014 (Local Time) from LELC Reporting Station
Few Clouds Few Clouds  
Wind Chill: 16°   Ceiling: Unl
Heat Index: 16°   Visibility: 6mi
Dew Point: 14°   Wind: 5mph
Humidity: 88%   Direction: 190°S
Pressure: 29.83"   Gusts: NA
Location:  38.04°N, 1.49°W
Report Text: LELC 262100Z 19004KT 160V220 9999 FEW028 16/14 Q1010 NOSIG
Loading
Personal Weather Stations






























Interactive Weather Map New forecast layout! Learn more

10-Day Weather Forecast

Advertisements
Track Severe Weather on mobile